Time;durP1;ratioP1;P1;durP2;ratioP2;P2;SDS_P1;SDS_P2;PMS_P1;PMS_P2;Temp;Humidity;BMP_temperature;BMP_pressure;BME280_temperature;BME280_humidity;BME280_pressure;Samples;Min_cycle;Max_cycle;Signal;HPM_P1;HPM_P2
2022/09/06 00:02:10;;;;;;;9.43;3.70;;;;;;;18.85;100.00;101626.78;10377627;28;20439;-75
2022/09/06 00:07:11;;;;;;;7.95;3.83;;;;;;;18.78;100.00;101614.25;10401972;28;20033;-75
2022/09/06 00:12:11;;;;;;;5.93;3.47;;;;;;;18.74;100.00;101614.00;10397903;28;20045;-75
2022/09/06 00:17:12;;;;;;;5.35;3.80;;;;;;;18.57;100.00;101603.25;10418916;28;20034;-75
2022/09/06 00:22:12;;;;;;;5.80;3.20;;;;;;;18.58;100.00;101621.63;10384070;28;20044;-69
2022/09/06 00:27:13;;;;;;;11.32;4.05;;;;;;;18.51;100.00;101618.34;10418830;28;21050;-76
2022/09/06 00:32:13;;;;;;;9.95;4.47;;;;;;;18.44;100.00;101603.88;10417379;28;20049;-76
2022/09/06 00:37:14;;;;;;;6.50;3.65;;;;;;;18.43;100.00;101607.81;10400649;28;20123;-76
2022/09/06 00:42:14;;;;;;;8.23;3.50;;;;;;;18.32;100.00;101591.16;10383377;28;20065;-76
2022/09/06 00:47:15;;;;;;;8.45;4.13;;;;;;;18.40;100.00;101620.38;10390700;28;20113;-75
2022/09/06 00:52:16;;;;;;;5.85;3.58;;;;;;;18.38;100.00;101611.47;10363419;28;20117;-76
2022/09/06 00:57:16;;;;;;;5.43;3.58;;;;;;;18.34;100.00;101619.59;10398013;28;20063;-76
2022/09/06 01:02:17;;;;;;;5.55;3.50;;;;;;;18.32;100.00;101607.88;10400341;28;20037;-76
2022/09/06 01:07:29;;;;;;;6.93;3.90;;;;;;;18.29;100.00;101600.13;10417039;28;20056;-76
2022/09/06 01:12:33;;;;;;;6.65;3.67;;;;;;;18.32;100.00;101598.69;10424099;28;20409;-76
2022/09/06 01:17:46;;;;;;;6.65;3.85;;;;;;;18.30;100.00;101598.97;10412395;28;20049;-76
2022/09/06 01:23:23;;;;;;;9.38;4.07;;;;;;;18.28;100.00;101605.97;10435031;28;20068;-76
2022/09/06 01:28:38;;;;;;;5.15;3.80;;;;;;;18.27;100.00;101594.00;10405287;28;20050;-75
2022/09/06 01:34:07;;;;;;;6.78;5.13;;;;;;;18.15;100.00;101588.78;10441537;28;20037;-76
2022/09/06 01:39:13;;;;;;;6.15;3.88;;;;;;;18.11;100.00;101582.09;10453916;28;20110;-76
2022/09/06 01:44:13;;;;;;;7.57;4.10;;;;;;;18.12;100.00;101585.72;10391248;28;20126;-75
2022/09/06 01:49:43;;;;;;;9.00;4.30;;;;;;;18.14;100.00;101580.69;10356165;28;20092;-76
2022/09/06 01:55:13;;;;;;;4.93;4.25;;;;;;;18.07;100.00;101569.03;10415514;28;20048;-76
2022/09/06 02:00:14;;;;;;;4.85;3.90;;;;;;;18.03;100.00;101559.59;10413759;28;20048;-76
2022/09/06 02:05:44;;;;;;;5.80;3.95;;;;;;;18.12;100.00;101580.13;10396435;28;20029;-76
2022/09/06 02:10:47;;;;;;;5.53;4.32;;;;;;;17.99;100.00;101564.06;10447540;28;20049;-75
2022/09/06 02:15:53;;;;;;;7.90;4.60;;;;;;;18.11;100.00;101581.28;10453926;28;20044;-75
2022/09/06 02:20:54;;;;;;;5.93;4.78;;;;;;;17.97;100.00;101574.69;10402908;28;20049;-75
2022/09/06 02:25:58;;;;;;;9.45;4.60;;;;;;;18.06;100.00;101582.13;10397006;28;20091;-76
2022/09/06 02:31:01;;;;;;;6.03;4.43;;;;;;;17.84;100.00;101551.03;10397582;28;20033;-75
2022/09/06 02:36:05;;;;;;;7.05;4.90;;;;;;;17.99;100.00;101586.38;10432044;28;20041;-76
2022/09/06 02:41:06;;;;;;;7.13;5.35;;;;;;;17.86;100.00;101566.38;10438441;28;20056;-75
2022/09/06 02:46:06;;;;;;;5.80;4.88;;;;;;;17.90;100.00;101580.53;10400796;28;20079;-75
2022/09/06 02:51:07;;;;;;;7.18;4.95;;;;;;;17.87;100.00;101573.59;10449260;28;20106;-76
2022/09/06 02:56:08;;;;;;;6.25;5.00;;;;;;;17.85;100.00;101564.69;10436286;28;20052;-78
2022/09/06 03:01:09;;;;;;;7.95;5.25;;;;;;;17.83;100.00;101566.09;10437637;28;20033;-75
2022/09/06 03:06:09;;;;;;;11.07;5.57;;;;;;;17.84;100.00;101562.19;10415865;28;20421;-76
2022/09/06 03:11:09;;;;;;;7.10;5.30;;;;;;;17.85;100.00;101564.69;10456303;28;20478;-75
2022/09/06 03:16:10;;;;;;;6.95;5.90;;;;;;;17.82;100.00;101559.69;10459650;28;20064;-75
2022/09/06 03:21:11;;;;;;;6.53;5.60;;;;;;;17.71;100.00;101544.13;10461540;28;20060;-70
2022/09/06 03:26:11;;;;;;;5.95;5.22;;;;;;;17.71;100.00;101539.41;10461860;28;20585;-75
2022/09/06 03:31:12;;;;;;;6.53;5.18;;;;;;;17.64;100.00;101535.25;10425508;28;20037;-75
2022/09/06 03:36:12;;;;;;;8.07;5.82;;;;;;;17.64;100.00;101541.66;10420703;28;20070;-75
2022/09/06 03:41:13;;;;;;;7.95;5.90;;;;;;;17.56;100.00;101545.03;10419596;28;20034;-74
2022/09/06 03:46:13;;;;;;;10.60;5.63;;;;;;;17.60;100.00;101550.88;10455300;28;20045;-75
2022/09/06 03:51:14;;;;;;;9.65;6.03;;;;;;;17.54;100.00;101559.22;10424384;28;20042;-76
2022/09/06 03:56:14;;;;;;;10.57;6.72;;;;;;;17.54;100.00;101559.22;10418545;28;20030;-75
2022/09/06 04:01:15;;;;;;;8.48;6.68;;;;;;;17.52;100.00;101553.13;10420713;28;20045;-75
2022/09/06 04:06:15;;;;;;;9.02;6.00;;;;;;;17.44;100.00;101542.56;10436316;28;20048;-70
2022/09/06 04:11:16;;;;;;;10.07;7.03;;;;;;;17.51;100.00;101554.25;10443292;28;20044;-75
2022/09/06 04:16:17;;;;;;;8.77;7.57;;;;;;;17.46;100.00;101545.91;10423598;28;20044;-75
2022/09/06 04:21:17;;;;;;;9.90;8.30;;;;;;;17.34;100.00;101531.47;10400985;28;20041;-74
2022/09/06 04:26:18;;;;;;;10.75;8.23;;;;;;;17.47;100.00;101558.72;10417471;28;20034;-75
2022/09/06 04:31:18;;;;;;;9.38;8.48;;;;;;;17.44;100.00;101552.88;10435487;28;20032;-75
2022/09/06 04:36:19;;;;;;;10.32;8.00;;;;;;;17.47;100.00;101553.16;10423894;28;20037;-75
2022/09/06 04:41:19;;;;;;;10.73;8.75;;;;;;;17.35;100.00;101533.97;10451272;28;20043;-75
2022/09/06 04:46:24;;;;;;;12.32;8.48;;;;;;;17.47;100.00;101550.38;10425189;28;20037;-74
2022/09/06 04:51:25;;;;;;;10.73;8.98;;;;;;;17.48;100.00;101553.97;10432612;28;20076;-75
2022/09/06 04:56:25;;;;;;;10.20;8.75;;;;;;;17.46;100.00;101545.91;10458772;28;20044;-74
2022/09/06 05:01:26;;;;;;;11.73;8.90;;;;;;;17.43;100.00;101535.34;10444125;28;20045;-75
2022/09/06 05:06:26;;;;;;;10.40;8.35;;;;;;;17.59;100.00;101549.19;10414863;28;20033;-74
2022/09/06 05:11:27;;;;;;;11.95;9.32;;;;;;;17.65;100.00;101553.63;10416465;28;20037;-74
2022/09/06 05:16:27;;;;;;;11.68;8.95;;;;;;;17.63;100.00;101553.94;10452567;28;20053;-74
2022/09/06 05:21:28;;;;;;;13.18;8.57;;;;;;;17.71;100.00;101574.75;10422245;28;20586;-75
2022/09/06 05:26:28;;;;;;;12.38;8.00;;;;;;;17.69;100.00;101571.41;10413289;28;20072;-75
2022/09/06 05:31:32;;;;;;;11.63;8.32;;;;;;;17.69;100.00;101571.41;10413620;28;20034;-74
2022/09/06 05:36:33;;;;;;;10.57;8.10;;;;;;;17.51;100.00;101543.09;10414864;28;20044;-75
2022/09/06 05:41:33;;;;;;;12.45;8.15;;;;;;;17.68;100.00;101564.19;10414491;28;20521;-75
2022/09/06 05:46:41;;;;;;;10.55;8.40;;;;;;;17.58;100.00;101565.06;10446822;28;20043;-74
2022/09/06 05:51:41;;;;;;;11.90;9.07;;;;;;;17.72;100.00;101591.19;10438973;28;20101;-75
2022/09/06 05:56:42;;;;;;;12.57;10.55;;;;;;;17.72;100.00;101598.72;10455174;28;20033;-75
2022/09/06 06:01:47;;;;;;;14.60;10.18;;;;;;;17.58;100.00;101589.31;10421104;28;20030;-75
2022/09/06 06:06:48;;;;;;;17.42;10.50;;;;;;;17.58;100.00;101597.66;10430805;28;20029;-75
2022/09/06 06:11:48;;;;;;;13.60;9.98;;;;;;;17.68;100.00;101615.16;10414653;28;20041;-75
2022/09/06 06:16:49;;;;;;;11.98;10.75;;;;;;;17.68;100.00;101605.97;10449794;28;20033;-75
2022/09/06 06:21:49;;;;;;;17.23;12.80;;;;;;;17.77;100.00;101606.19;10453327;28;20044;-75
2022/09/06 06:26:49;;;;;;;15.82;12.80;;;;;;;17.80;100.00;101598.13;10416744;28;20068;-76
2022/09/06 06:31:50;;;;;;;17.75;12.27;;;;;;;17.90;100.00;101600.03;10379587;28;20268;-75
2022/09/06 06:36:51;;;;;;;14.75;12.75;;;;;;;18.01;100.00;101607.25;10372013;28;20112;-74
2022/09/06 06:41:51;;;;;;;13.68;11.48;;;;;;;18.03;100.00;101582.72;10373759;28;20038;-74
2022/09/06 06:46:52;;;;;;;11.30;10.07;;;;;;;18.17;100.00;101588.47;10381509;28;20061;-73
2022/09/06 06:51:52;;;;;;;14.52;12.90;;;;;;;18.31;100.00;101589.50;10411894;28;20045;-67
2022/09/06 06:56:53;;;;;;;12.95;11.18;;;;;;;18.49;100.00;101584.34;10389848;28;20041;-74
2022/09/06 07:01:53;;;;;;;13.60;11.68;;;;;;;18.75;100.00;101577.44;10380216;28;20052;-73
2022/09/06 07:06:54;;;;;;;14.98;11.85;;;;;;;18.89;100.00;101560.91;10380712;28;20044;-74
2022/09/06 07:11:55;;;;;;;13.20;10.63;;;;;;;19.10;100.00;101574.63;10412868;28;20029;-74
2022/09/06 07:16:58;;;;;;;13.60;11.50;;;;;;;19.15;100.00;101585.75;10420477;28;20033;-74
2022/09/06 07:21:58;;;;;;;28.27;10.43;;;;;;;19.26;100.00;101580.88;10421339;28;20041;-74
2022/09/06 07:26:59;;;;;;;16.55;10.35;;;;;;;19.39;100.00;101585.78;10413715;28;20092;-73
2022/09/06 07:31:59;;;;;;;13.43;9.98;;;;;;;19.67;100.00;101569.22;10436626;28;20045;-74
2022/09/06 07:37:00;;;;;;;12.45;9.82;;;;;;;19.62;100.00;101517.06;10442555;28;20040;-74
2022/09/06 07:42:00;;;;;;;13.02;9.93;;;;;;;19.96;100.00;101550.41;10440561;28;20033;-75
2022/09/06 07:47:05;;;;;;;13.77;11.38;;;;;;;19.84;100.00;101516.47;10427313;28;20064;-75
2022/09/06 07:52:05;;;;;;;13.68;10.85;;;;;;;19.78;100.00;101536.41;10426013;28;20049;-76
2022/09/06 07:57:06;;;;;;;12.30;11.10;;;;;;;19.80;100.00;101548.94;10417205;28;20030;-75
2022/09/06 08:02:06;;;;;;;12.73;11.43;;;;;;;19.84;100.00;101540.81;10433046;28;20041;-75
2022/09/06 08:07:07;;;;;;;13.52;11.50;;;;;;;19.83;100.00;101540.00;10418020;28;20037;-75
2022/09/06 08:12:07;;;;;;;14.88;11.70;;;;;;;19.76;100.00;101519.94;10417286;28;20040;-75
2022/09/06 08:17:08;;;;;;;16.20;11.75;;;;;;;19.84;100.00;101524.03;10427685;28;20047;-75
2022/09/06 08:22:08;;;;;;;12.73;11.05;;;;;;;19.83;100.00;101519.59;10432965;28;20040;-75
2022/09/06 08:27:10;;;;;;;12.65;10.25;;;;;;;19.74;100.00;101519.41;10437618;28;20044;-75
2022/09/06 08:32:10;;;;;;;12.95;10.05;;;;;;;19.68;100.00;101529.81;10434786;28;20028;-74
2022/09/06 08:37:10;;;;;;;15.40;10.07;;;;;;;19.72;100.00;101524.47;10418491;28;20034;-73
2022/09/06 08:42:11;;;;;;;28.85;12.35;;;;;;;19.92;100.00;101529.78;10433760;28;20049;-75
2022/09/06 08:47:17;;;;;;;19.67;11.48;;;;;;;20.25;100.00;101538.22;10416617;28;20037;-75
2022/09/06 08:52:36;;;;;;;13.98;9.35;;;;;;;20.78;100.00;101556.69;10434309;28;20500;-75
2022/09/06 08:57:52;;;;;;;14.15;10.50;;;;;;;21.83;100.00;101544.84;10425027;28;20100;-75
2022/09/06 09:02:58;;;;;;;13.97;9.50;;;;;;;22.68;100.00;101531.03;10419055;28;20041;-75
2022/09/06 09:08:19;;;;;;;;;;;;;;;23.34;100.00;101513.53;10400666;28;20045;-76
2022/09/06 09:13:37;;;;;;;12.88;9.15;;;;;;;23.07;100.00;101515.41;10376793;28;20012;-75
2022/09/06 09:18:39;;;;;;;13.50;8.77;;;;;;;23.14;100.00;101538.22;10439729;28;20480;-76
2022/09/06 09:23:40;;;;;;;11.48;8.88;;;;;;;23.33;100.00;101542.75;10439529;28;20048;-75
2022/09/06 09:29:01;;;;;;;10.55;7.78;;;;;;;23.45;98.94;101554.22;10431632;28;20038;-75
2022/09/06 09:34:03;;;;;;;9.57;7.43;;;;;;;23.32;96.84;101510.22;10428430;28;20070;-76
2022/09/06 09:39:10;;;;;;;23.13;9.77;;;;;;;23.60;95.00;101540.88;10447803;28;20040;-77
2022/09/06 09:44:16;;;;;;;8.98;8.07;;;;;;;23.78;93.29;101548.22;10456029;28;20080;-75
2022/09/06 09:49:26;;;;;;;21.80;9.65;;;;;;;23.92;90.69;101540.47;10413843;28;20065;-76
2022/09/06 09:54:30;;;;;;;11.77;8.95;;;;;;;23.80;90.81;101526.22;10442745;28;20059;-77
2022/09/06 09:59:41;;;;;;;13.63;8.10;;;;;;;23.81;92.06;101533.50;10410809;28;20052;-79
2022/09/06 10:04:49;;;;;;;9.20;7.57;;;;;;;24.05;88.95;101532.22;10398197;28;20029;-77
2022/09/06 10:09:59;;;;;;;19.45;10.43;;;;;;;24.22;86.78;101532.19;10414114;28;20497;-77
2022/09/06 10:15:00;;;;;;;20.65;9.65;;;;;;;24.40;86.49;101533.03;10413289;28;20124;-75
2022/09/06 10:20:08;;;;;;;13.50;9.13;;;;;;;24.67;84.76;101509.31;10412316;28;20544;-77
2022/09/06 10:25:35;;;;;;;33.22;9.05;;;;;;;24.76;85.30;101524.22;10453379;28;20087;-76
2022/09/06 10:30:40;;;;;;;12.85;7.38;;;;;;;24.87;83.21;101506.97;10437227;28;20041;-77
2022/09/06 10:35:40;;;;;;;8.90;7.32;;;;;;;24.90;83.35;101492.19;10438113;28;20101;-79
2022/09/06 10:41:09;;;;;;;8.75;6.50;;;;;;;25.17;82.15;101505.81;10425593;28;20061;-77
2022/09/06 10:46:17;;;;;;;10.23;6.90;;;;;;;25.23;80.70;101486.75;10423847;28;20050;-78
2022/09/06 10:51:37;;;;;;;10.55;7.07;;;;;;;25.33;79.52;101474.28;10373645;28;20041;-79
2022/09/06 10:56:44;;;;;;;28.30;8.77;;;;;;;25.49;79.76;101483.81;10434033;28;20575;-78
2022/09/06 11:02:04;;;;;;;20.92;7.85;;;;;;;25.75;77.44;101489.25;10430128;28;20113;-78
2022/09/06 11:07:27;;;;;;;11.13;6.07;;;;;;;25.95;76.53;101469.91;10413880;28;20037;-77
2022/09/06 11:12:47;;;;;;;15.88;8.07;;;;;;;26.22;75.79;101451.56;10410892;28;20093;-79
2022/09/06 11:18:15;;;;;;;31.15;9.45;;;;;;;26.28;73.40;101455.81;10411259;28;20102;-77
2022/09/06 11:23:26;;;;;;;37.47;9.23;;;;;;;26.51;73.97;101461.06;10406699;28;20452;-78
2022/09/06 11:28:40;;;;;;;16.02;6.35;;;;;;;26.72;72.88;101452.53;10413388;28;20103;-79
2022/09/06 11:33:40;;;;;;;13.65;6.50;;;;;;;27.01;70.86;101462.78;10428869;28;20044;-78
2022/09/06 11:38:41;;;;;;;13.05;8.02;;;;;;;27.15;70.31;101468.09;10461014;28;20033;-86
2022/09/06 11:43:47;;;;;;;31.83;8.75;;;;;;;27.24;69.20;101436.91;10427404;28;20063;-87
2022/09/06 11:49:10;;;;;;;41.00;8.68;;;;;;;27.17;69.57;101449.59;10426208;28;20029;-77
2022/09/06 11:54:13;;;;;;;18.00;7.30;;;;;;;27.25;69.02;101449.88;10414616;28;20038;-73
2022/09/06 11:59:22;;;;;;;11.13;5.60;;;;;;;27.84;69.08;101457.75;10416570;28;20558;-74
2022/09/06 12:04:22;;;;;;;31.02;7.68;;;;;;;28.41;66.01;101435.16;10384646;28;20045;-75
2022/09/06 12:09:37;;;;;;;23.80;8.10;;;;;;;28.90;64.16;101418.66;10383946;28;20452;-75
2022/09/06 12:14:45;;;;;;;7.93;5.50;;;;;;;29.37;62.54;101405.59;10415288;28;20090;-74
2022/09/06 12:19:50;;;;;;;9.75;5.75;;;;;;;30.17;60.62;101406.91;10409558;28;20041;-76
2022/09/06 12:25:04;;;;;;;11.30;5.13;;;;;;;30.93;58.50;101385.56;10400274;28;20386;-77
2022/09/06 12:30:10;;;;;;;11.82;5.95;;;;;;;30.94;58.23;101379.47;10415558;28;20097;-74
2022/09/06 12:35:25;;;;;;;6.25;4.80;;;;;;;30.79;58.05;101371.88;10439830;28;20041;-76
2022/09/06 12:40:33;;;;;;;42.20;6.68;;;;;;;30.85;57.68;101363.88;10441448;28;20056;-75
2022/09/06 12:45:33;;;;;;;15.00;5.43;;;;;;;31.73;56.46;101380.59;10442071;28;20037;-78
2022/09/06 12:50:34;;;;;;;8.05;4.93;;;;;;;32.11;55.23;101360.72;10420221;28;20057;-76
2022/09/06 12:55:36;;;;;;;6.28;4.45;;;;;;;32.30;53.30;101346.25;10385351;28;20100;-76
2022/09/06 13:00:46;;;;;;;10.95;5.70;;;;;;;32.09;53.33;101358.25;10384611;28;20042;-78
2022/09/06 13:05:47;;;;;;;7.97;5.15;;;;;;;32.27;52.05;101347.03;10412618;28;20045;-75
2022/09/06 13:10:47;;;;;;;6.32;4.75;;;;;;;32.31;51.61;101341.34;10415043;28;20034;-75
2022/09/06 13:15:48;;;;;;;16.40;4.70;;;;;;;32.69;51.90;101344.97;10416510;28;20041;-75
2022/09/06 13:21:07;;;;;;;5.28;4.72;;;;;;;33.43;51.28;101331.59;10437846;28;20572;-75
2022/09/06 13:26:08;;;;;;;5.57;4.50;;;;;;;33.15;49.49;101319.63;10418998;28;20040;-75
2022/09/06 13:31:19;;;;;;;6.57;4.40;;;;;;;33.17;49.99;101308.63;10381036;28;20041;-75
2022/09/06 13:36:39;;;;;;;6.60;5.00;;;;;;;32.93;50.34;101315.81;10404191;28;20168;-71
2022/09/06 13:41:40;;;;;;;11.20;4.97;;;;;;;32.66;50.62;101306.69;10419995;28;20055;-73
2022/09/06 13:46:40;;;;;;;6.20;4.50;;;;;;;31.79;51.09;101321.28;10455822;28;20044;-71
2022/09/06 13:51:42;;;;;;;5.63;4.63;;;;;;;31.11;53.38;101321.25;10405308;28;20044;-75
2022/09/06 13:56:47;;;;;;;8.07;5.07;;;;;;;31.60;54.09;101336.50;10415975;28;20544;-75
2022/09/06 14:01:52;;;;;;;10.68;5.00;;;;;;;32.61;52.52;101321.28;10454533;28;20055;-73
2022/09/06 14:06:53;;;;;;;6.22;4.85;;;;;;;32.80;51.73;101322.25;10437396;28;20163;-73
2022/09/06 14:11:53;;;;;;;7.72;4.95;;;;;;;32.54;51.55;101322.06;10380461;28;20155;-73
2022/09/06 14:16:54;;;;;;;9.35;5.20;;;;;;;32.22;52.34;101330.28;10419968;28;20037;-75
2022/09/06 14:21:54;;;;;;;7.93;5.50;;;;;;;32.01;52.69;101321.56;10413674;28;20037;-74
2022/09/06 14:26:55;;;;;;;7.45;4.70;;;;;;;32.42;52.52;101318.69;10396097;28;20037;-73
2022/09/06 14:31:56;;;;;;;11.13;5.05;;;;;;;31.85;52.34;101311.19;10418276;28;20559;-78
2022/09/06 14:36:56;;;;;;;9.75;4.88;;;;;;;30.64;55.46;101318.88;10437567;28;20040;-75
2022/09/06 14:41:57;;;;;;;8.40;5.22;;;;;;;29.67;57.76;101328.44;10454414;28;20063;-74
2022/09/06 14:46:58;;;;;;;14.25;5.53;;;;;;;28.40;60.72;101348.53;10429040;28;20053;-75
2022/09/06 14:51:59;;;;;;;9.15;5.00;;;;;;;28.00;60.54;101222.16;10339492;28;20049;-76
2022/09/06 14:56:59;;;;;;;9.80;5.38;;;;;;;28.72;61.06;101321.03;10373197;28;20026;-74
2022/09/06 15:02:00;;;;;;;7.30;4.53;;;;;;;28.87;61.17;101333.53;10378381;28;20030;-72
2022/09/06 15:07:00;;;;;;;5.28;4.60;;;;;;;28.78;60.39;101320.38;10420653;28;20048;-69
2022/09/06 15:12:01;;;;;;;5.18;4.55;;;;;;;28.43;62.66;101313.84;10420733;28;20040;-71
2022/09/06 15:17:04;;;;;;;8.48;4.53;;;;;;;28.44;62.81;101318.28;10404491;28;20091;-72
2022/09/06 15:22:05;;;;;;;7.30;4.20;;;;;;;28.26;62.91;101301.69;10403222;28;20037;-71
2022/09/06 15:27:05;;;;;;;10.90;4.43;;;;;;;28.33;64.40;101312.38;10404034;28;20041;-72
2022/09/06 15:32:06;;;;;;;7.15;4.30;;;;;;;29.22;62.54;101296.69;10396865;28;20529;-71
2022/09/06 15:37:06;;;;;;;8.63;5.28;;;;;;;28.50;63.64;101295.00;10380475;28;20069;-71
2022/09/06 15:42:07;;;;;;;5.70;3.60;;;;;;;29.13;63.33;101291.25;10378076;28;20053;-72
2022/09/06 15:47:08;;;;;;;7.35;4.53;;;;;;;29.73;61.75;101281.56;10378300;28;20050;-71
2022/09/06 15:52:09;;;;;;;7.85;4.45;;;;;;;28.80;63.07;101246.34;10362582;28;20084;-72
2022/09/06 15:57:09;;;;;;;6.40;4.40;;;;;;;28.32;64.56;101288.06;10369149;28;20045;-71
2022/09/06 16:02:09;;;;;;;6.07;4.70;;;;;;;27.63;66.71;101293.88;10414280;28;20045;-71
2022/09/06 16:07:10;;;;;;;10.13;4.70;;;;;;;27.07;68.67;101294.66;10344930;28;20037;-71
2022/09/06 16:12:11;;;;;;;4.97;4.30;;;;;;;26.36;69.92;101257.28;10344385;28;20655;-70
2022/09/06 16:17:11;;;;;;;6.75;4.32;;;;;;;26.24;71.99;101302.44;10377674;28;20038;-72
2022/09/06 16:22:12;;;;;;;7.10;4.78;;;;;;;26.08;74.06;101307.13;10415263;28;20049;-71
2022/09/06 16:27:12;;;;;;;7.88;4.88;;;;;;;25.89;74.38;101291.56;10376449;28;20038;-71
2022/09/06 16:32:13;;;;;;;10.88;4.30;;;;;;;25.84;75.58;101291.78;10418272;28;20038;-72
2022/09/06 16:37:13;;;;;;;5.65;4.70;;;;;;;25.64;76.40;101282.19;10387906;28;20060;-70
2022/09/06 16:42:14;;;;;;;5.90;4.38;;;;;;;25.41;77.32;101262.03;10387230;28;20041;-71
2022/09/06 16:47:14;;;;;;;6.47;4.70;;;;;;;25.08;78.66;101233.78;10370486;28;20163;-72
2022/09/06 16:52:15;;;;;;;12.55;5.20;;;;;;;24.91;80.29;101248.84;10374396;28;20153;-72
2022/09/06 16:57:15;;;;;;;8.70;4.45;;;;;;;24.73;81.14;101257.38;10390538;28;20044;-71
2022/09/06 17:02:16;;;;;;;11.27;5.03;;;;;;;24.63;82.57;101277.50;10382626;28;20046;-72
2022/09/06 17:07:17;;;;;;;7.28;4.78;;;;;;;24.34;83.41;101269.84;10446042;28;20523;-72
2022/09/06 17:12:17;;;;;;;8.52;4.38;;;;;;;24.30;84.43;101288.56;10457845;28;20041;-76
2022/09/06 17:17:18;;;;;;;8.43;4.75;;;;;;;24.19;85.45;101293.75;10413943;28;20037;-77
2022/09/06 17:22:20;;;;;;;9.48;4.93;;;;;;;24.01;86.27;101297.78;10435088;28;20032;-76
2022/09/06 17:27:20;;;;;;;7.88;5.10;;;;;;;23.81;87.96;101302.13;10430894;28;20068;-77
2022/09/06 17:32:21;;;;;;;11.00;5.40;;;;;;;23.63;88.80;101307.75;10426844;28;20036;-76
2022/09/06 17:37:22;;;;;;;7.18;4.82;;;;;;;23.47;90.72;101303.81;10417386;28;20045;-77
2022/09/06 17:42:23;;;;;;;9.38;4.82;;;;;;;23.20;92.71;101293.72;10412708;28;20536;-81
2022/09/06 17:47:24;;;;;;;11.15;5.20;;;;;;;23.02;93.58;101310.56;10392980;28;20072;-81
2022/09/06 17:52:24;;;;;;;9.52;5.38;;;;;;;22.93;93.45;101312.50;10405111;28;20033;-80
2022/09/06 17:57:25;;;;;;;9.77;5.60;;;;;;;22.77;94.70;101315.75;10395483;28;20029;-80
2022/09/06 18:02:26;;;;;;;5.38;4.80;;;;;;;22.58;95.17;101312.41;10399124;28;20128;-83
2022/09/06 18:07:26;;;;;;;7.05;5.85;;;;;;;22.35;96.81;101304.06;10414312;28;20033;-82
2022/09/06 18:12:29;;;;;;;9.25;5.05;;;;;;;22.43;97.44;101340.88;10420478;28;20030;-82
2022/09/06 18:17:30;;;;;;;7.47;5.05;;;;;;;22.29;98.15;101333.41;10396385;28;20037;-83
2022/09/06 18:22:31;;;;;;;12.00;5.05;;;;;;;22.20;99.59;101340.94;10411076;28;20049;-80
2022/09/06 18:27:32;;;;;;;8.40;5.22;;;;;;;22.00;100.00;101330.28;10415798;28;20048;-83
2022/09/06 18:32:33;;;;;;;7.13;5.10;;;;;;;21.92;100.00;101345.88;10415535;28;20029;-83
2022/09/06 18:37:34;;;;;;;9.18;5.80;;;;;;;21.84;100.00;101349.47;10411667;28;20090;-82
2022/09/06 18:42:35;;;;;;;9.02;5.97;;;;;;;21.71;100.00;101345.59;10367835;28;20286;-82
2022/09/06 18:47:35;;;;;;;13.32;6.65;;;;;;;21.54;100.00;101335.06;10413285;28;20068;-84
2022/09/06 18:52:37;;;;;;;10.70;6.05;;;;;;;21.48;100.00;101356.78;10396912;28;20097;-90
2022/09/06 18:57:37;;;;;;;13.75;6.78;;;;;;;21.34;100.00;101353.16;10398285;28;20093;-86
2022/09/06 19:02:38;;;;;;;11.18;6.38;;;;;;;21.22;100.00;101356.50;10438337;28;20113;-85
2022/09/06 19:07:38;;;;;;;11.30;6.25;;;;;;;21.02;100.00;101346.56;10405981;28;20057;-89
2022/09/06 19:12:39;;;;;;;8.68;5.90;;;;;;;20.93;100.00;101365.25;10389759;28;20056;-87
2022/09/06 19:17:40;;;;;;;13.30;6.30;;;;;;;20.81;100.00;101364.97;10412094;28;20049;-88
2022/09/06 19:22:40;;;;;;;7.78;6.05;;;;;;;20.61;100.00;101363.41;10398293;28;20044;-91
2022/09/06 19:27:41;;;;;;;10.55;6.78;;;;;;;20.59;100.00;101372.13;10390055;28;20054;-85
2022/09/06 19:32:41;;;;;;;11.02;6.57;;;;;;;20.49;100.00;101367.53;10368780;28;20156;-88
2022/09/06 19:37:42;;;;;;;13.20;6.30;;;;;;;20.30;100.00;101344.41;10376994;28;20041;-88
2022/09/06 19:42:42;;;;;;;6.43;5.43;;;;;;;20.25;100.00;101356.50;10373814;28;20041;-88
2022/09/06 19:47:43;;;;;;;6.85;5.90;;;;;;;20.24;100.00;101349.25;10342674;28;20045;-86
2022/09/06 19:52:44;;;;;;;7.53;5.47;;;;;;;20.15;100.00;101368.72;10380859;28;20101;-87
2022/09/06 19:57:45;;;;;;;9.55;5.25;;;;;;;20.06;100.00;101362.16;10350061;28;20026;-93
2022/09/06 20:02:45;;;;;;;8.95;5.30;;;;;;;19.92;100.00;101350.94;10383863;28;20042;-88
2022/09/06 20:07:46;;;;;;;7.72;5.53;;;;;;;19.84;100.00;101353.59;10383202;28;20034;-91
2022/09/06 20:12:46;;;;;;;10.55;4.85;;;;;;;19.79;100.00;101346.16;10374240;28;20588;-88
2022/09/06 20:17:49;;;;;;;8.25;6.05;;;;;;;19.73;100.00;101344.56;10411770;28;20038;-88
2022/09/06 20:22:49;;;;;;;9.15;5.45;;;;;;;19.70;100.00;101345.13;10422981;28;20077;-85
2022/09/06 20:27:50;;;;;;;10.77;5.10;;;;;;;19.62;100.00;101343.06;10408833;28;20041;-85
2022/09/06 20:32:50;;;;;;;9.45;5.55;;;;;;;19.50;100.00;101323.97;10412892;28;20113;-91
2022/09/06 20:37:51;;;;;;;6.97;5.38;;;;;;;19.48;100.00;101338.22;10391752;28;20040;-88
2022/09/06 20:42:51;;;;;;;8.43;5.25;;;;;;;19.42;100.00;101322.69;10440048;28;20429;-89
2022/09/06 20:47:55;;;;;;;17.55;5.65;;;;;;;19.37;100.00;101325.56;10428109;28;20060;-89
2022/09/06 20:52:56;;;;;;;10.75;5.25;;;;;;;19.31;100.00;101326.78;10393127;28;20045;-88
2022/09/06 20:57:56;;;;;;;6.70;4.93;;;;;;;19.29;100.00;101327.09;10348526;28;20090;-90
2022/09/06 21:02:57;;;;;;;8.52;4.95;;;;;;;19.19;100.00;101318.03;10371339;28;20124;-88
2022/09/06 21:07:57;;;;;;;8.57;5.57;;;;;;;19.08;100.00;101301.44;10377955;28;20034;-88
2022/09/06 21:12:59;;;;;;;9.27;6.03;;;;;;;19.07;100.00;101304.53;10380006;28;20030;-88
2022/09/06 21:18:00;;;;;;;7.30;5.05;;;;;;;19.05;100.00;101302.03;10359908;28;20038;-89
2022/09/06 21:23:00;;;;;;;6.50;5.50;;;;;;;19.04;100.00;101305.97;10366656;28;20038;-87
2022/09/06 21:28:01;;;;;;;11.98;4.90;;;;;;;18.98;100.00;101284.84;10367337;28;20041;-82
2022/09/06 21:33:02;;;;;;;8.05;6.00;;;;;;;18.93;100.00;101269.00;10378512;28;20052;-87
2022/09/06 21:38:02;;;;;;;7.40;4.78;;;;;;;18.82;100.00;101261.09;10352980;28;20041;-91
2022/09/06 21:43:04;;;;;;;10.63;6.18;;;;;;;18.79;100.00;101259.72;10420341;28;20034;-90
2022/09/06 21:48:04;;;;;;;8.13;4.95;;;;;;;18.89;100.00;101264.31;10348440;28;20106;-91
2022/09/06 21:53:05;;;;;;;8.75;5.40;;;;;;;18.82;100.00;101264.69;10377004;28;20068;-90
2022/09/06 21:58:06;;;;;;;11.23;5.53;;;;;;;18.67;100.00;101262.09;10394462;28;20552;-89
2022/09/06 22:03:07;;;;;;;17.48;7.53;;;;;;;18.70;100.00;101284.63;10373742;28;20093;-91
2022/09/06 22:08:07;;;;;;;11.23;5.63;;;;;;;18.53;100.00;101267.56;10403047;28;20099;-81
2022/09/06 22:13:08;;;;;;;8.27;5.47;;;;;;;18.60;100.00;101287.53;10372585;28;20026;-92
2022/09/06 22:18:08;;;;;;;8.75;5.38;;;;;;;18.52;100.00;101266.75;10401504;28;20109;-93
2022/09/06 22:23:09;;;;;;;6.47;5.53;;;;;;;18.37;100.00;101252.16;10401881;28;20121;-91
2022/09/06 22:28:09;;;;;;;9.32;5.57;;;;;;;18.34;100.00;101271.13;10415020;28;20030;-90
2022/09/06 22:33:10;;;;;;;8.32;4.82;;;;;;;18.29;100.00;101268.44;10386453;28;20052;-89
2022/09/06 22:38:10;;;;;;;8.85;5.53;;;;;;;18.29;100.00;101262.84;10395333;28;20025;-90
2022/09/06 22:43:12;;;;;;;8.00;4.97;;;;;;;18.16;100.00;101246.84;10417221;28;20034;-90
2022/09/06 22:48:13;;;;;;;8.75;5.50;;;;;;;18.16;100.00;101260.75;10394640;28;20087;-88
2022/09/06 22:53:13;;;;;;;9.73;5.40;;;;;;;17.92;100.00;101242.09;10396461;28;20121;-93